createdAt,value
2022-08-07T00:02:36.921Z,2.85
2022-08-07T00:05:05.834Z,2.50
2022-08-07T00:07:40.216Z,2.00
2022-08-07T00:10:26.661Z,1.90
2022-08-07T00:13:00.968Z,2.00
2022-08-07T00:15:35.993Z,2.70
2022-08-07T00:18:06.785Z,2.47
2022-08-07T00:20:39.184Z,2.10
2022-08-07T00:23:08.163Z,2.55
2022-08-07T00:25:41.411Z,2.03
2022-08-07T00:28:10.755Z,2.30
2022-08-07T00:30:39.024Z,2.10
2022-08-07T00:33:09.443Z,2.65
2022-08-07T00:35:38.526Z,3.05
2022-08-07T00:38:06.464Z,2.70
2022-08-07T00:40:36.300Z,4.10
2022-08-07T00:44:01.467Z,2.92
2022-08-07T00:46:02.013Z,2.65
2022-08-07T00:48:31.981Z,3.58
2022-08-07T00:51:01.563Z,5.03
2022-08-07T00:53:38.517Z,3.70
2022-08-07T00:56:15.986Z,3.08
2022-08-07T00:58:47.434Z,3.67
2022-08-07T01:01:20.712Z,2.95
2022-08-07T01:03:55.675Z,4.20
2022-08-07T01:06:29.308Z,2.83
2022-08-07T01:09:01.232Z,2.90
2022-08-07T01:12:08.933Z,4.60
2022-08-07T01:14:28.852Z,3.33
2022-08-07T01:16:59.409Z,2.38
2022-08-07T01:19:32.076Z,2.45
2022-08-07T01:22:03.424Z,3.20
2022-08-07T01:24:42.329Z,3.30
2022-08-07T01:27:32.108Z,3.22
2022-08-07T01:30:00.615Z,3.88
2022-08-07T01:32:29.629Z,5.75
2022-08-07T01:35:02.089Z,6.50
2022-08-07T01:37:33.806Z,3.70
2022-08-07T01:40:06.270Z,3.80
2022-08-07T01:42:57.170Z,4.25
2022-08-07T01:45:36.374Z,2.55
2022-08-07T01:48:20.198Z,3.95
2022-08-07T01:51:24.043Z,3.08
2022-08-07T01:54:11.582Z,3.88
2022-08-07T01:56:53.214Z,3.20
2022-08-07T01:59:31.131Z,2.95
2022-08-07T02:02:10.711Z,2.05
2022-08-07T02:04:56.030Z,2.00
2022-08-07T02:07:44.942Z,3.08
2022-08-07T02:10:27.299Z,2.00
2022-08-07T02:13:00.348Z,2.35
2022-08-07T02:15:39.370Z,2.90
2022-08-07T02:18:13.879Z,2.22
2022-08-07T02:20:48.537Z,3.58
2022-08-07T02:23:24.140Z,2.75
2022-08-07T02:26:31.942Z,2.28
2022-08-07T02:28:44.809Z,3.55
2022-08-07T02:31:28.121Z,2.67
2022-08-07T02:34:02.841Z,2.90
2022-08-07T02:36:43.980Z,2.42
2022-08-07T02:39:43.738Z,2.05
2022-08-07T02:42:10.066Z,3.25
2022-08-07T02:44:48.327Z,4.07
2022-08-07T02:47:23.531Z,3.63
2022-08-07T02:50:00.060Z,3.08
2022-08-07T02:52:39.335Z,2.80
2022-08-07T02:55:28.784Z,4.05
2022-08-07T02:58:07.086Z,3.67
2022-08-07T03:00:41.045Z,3.90
2022-08-07T03:05:56.870Z,4.60
2022-08-07T03:08:29.417Z,3.25
2022-08-07T03:11:01.754Z,3.92
2022-08-07T03:13:49.700Z,3.10
2022-08-07T03:16:23.035Z,3.08
2022-08-07T03:19:02.367Z,3.08
2022-08-07T03:24:19.966Z,12.23
2022-08-07T03:27:00.865Z,4.13
2022-08-07T03:29:52.312Z,3.15
2022-08-07T03:32:33.930Z,3.28
2022-08-07T03:35:18.069Z,3.33
2022-08-07T03:37:55.325Z,3.30
2022-08-07T03:40:36.582Z,3.70
2022-08-07T03:43:14.371Z,3.13
2022-08-07T03:45:48.720Z,5.05
2022-08-07T03:48:22.844Z,4.78
2022-08-07T03:50:57.791Z,3.47
2022-08-07T03:54:01.930Z,5.60
2022-08-07T03:56:33.451Z,4.55
2022-08-07T03:59:09.831Z,3.08
2022-08-07T04:01:46.563Z,4.15
2022-08-07T04:04:19.849Z,3.40
2022-08-07T04:06:54.051Z,3.75
2022-08-07T04:09:25.415Z,4.00
2022-08-07T04:12:24.615Z,3.70
2022-08-07T04:14:56.645Z,4.00
2022-08-07T04:18:56.976Z,5.20
2022-08-07T04:20:14.545Z,3.80
2022-08-07T04:22:53.677Z,3.35
2022-08-07T04:25:24.175Z,4.32
2022-08-07T04:28:01.178Z,4.25
2022-08-07T04:30:36.034Z,3.90
2022-08-07T04:33:25.998Z,4.35
2022-08-07T04:35:56.680Z,3.58
2022-08-07T04:38:29.574Z,6.88
2022-08-07T04:40:59.664Z,3.70
2022-08-07T04:44:11.963Z,4.85
2022-08-07T04:47:08.784Z,3.70
2022-08-07T04:50:03.830Z,5.78
2022-08-07T04:52:51.113Z,4.00
2022-08-07T04:58:16.568Z,4.32
2022-08-07T04:58:49.761Z,4.20
2022-08-07T05:01:21.119Z,4.47
2022-08-07T05:04:17.762Z,4.22
2022-08-07T05:07:20.390Z,7.68
2022-08-07T05:10:04.635Z,4.63
2022-08-07T05:12:52.892Z,5.88
2022-08-07T05:15:27.411Z,4.78
2022-08-07T05:18:09.308Z,3.95
2022-08-07T05:20:45.256Z,4.93
2022-08-07T05:23:19.821Z,6.40
2022-08-07T05:26:15.579Z,5.00
2022-08-07T05:28:53.409Z,6.32
2022-08-07T05:31:34.545Z,6.53
2022-08-07T05:34:10.989Z,4.45
2022-08-07T05:36:44.501Z,5.88
2022-08-07T05:40:07.040Z,4.38
2022-08-07T05:42:33.700Z,3.90
2022-08-07T05:45:25.940Z,5.10
2022-08-07T05:48:01.762Z,4.65
2022-08-07T05:50:39.542Z,5.88
2022-08-07T05:54:09.680Z,4.90
2022-08-07T05:56:06.080Z,5.68
2022-08-07T05:58:41.825Z,5.85
2022-08-07T06:01:23.334Z,4.60
2022-08-07T06:04:01.102Z,4.80
2022-08-07T06:06:37.279Z,5.53
2022-08-07T06:09:09.697Z,4.90
2022-08-07T06:11:44.190Z,5.05
2022-08-07T06:14:20.986Z,5.15
2022-08-07T06:16:57.121Z,6.05
2022-08-07T06:19:48.014Z,5.68
2022-08-07T06:22:24.068Z,5.18
2022-08-07T06:25:16.939Z,6.63
2022-08-07T06:28:01.410Z,4.22
2022-08-07T06:30:35.326Z,5.65
2022-08-07T06:33:15.613Z,4.30
2022-08-07T06:36:06.250Z,3.75
2022-08-07T06:38:35.770Z,3.63
2022-08-07T06:41:12.837Z,4.68
2022-08-07T06:43:59.259Z,3.63
2022-08-07T06:46:35.218Z,3.67
2022-08-07T06:49:05.090Z,5.05
2022-08-07T06:51:49.401Z,3.60
2022-08-07T21:21:04.636Z,5.32
2022-08-07T21:23:50.247Z,5.35
2022-08-07T21:26:34.693Z,5.35
2022-08-07T21:29:19.512Z,4.68
2022-08-07T21:32:43.558Z,6.45
2022-08-07T21:35:34.713Z,6.65
2022-08-07T21:41:38.137Z,5.18
2022-08-07T21:44:30.625Z,6.50
2022-08-07T21:47:31.952Z,5.60
2022-08-07T21:50:08.535Z,6.18
2022-08-07T21:53:18.470Z,10.25
2022-08-07T21:56:51.949Z,5.95
2022-08-07T22:00:05.188Z,6.18
2022-08-07T22:02:49.066Z,7.25
2022-08-07T22:05:44.419Z,6.75
2022-08-07T22:08:18.541Z,5.88
2022-08-07T22:10:57.310Z,6.63
2022-08-07T22:13:52.102Z,6.20
2022-08-07T22:16:42.807Z,8.65
2022-08-07T22:19:36.972Z,6.78
2022-08-07T22:22:27.597Z,6.35
2022-08-07T22:25:12.196Z,6.25
2022-08-07T22:28:08.055Z,7.63
2022-08-07T22:31:59.291Z,6.95
2022-08-07T22:34:35.847Z,5.82
2022-08-07T22:37:09.273Z,6.78
2022-08-07T22:40:18.996Z,6.55
2022-08-07T22:42:52.296Z,6.82
2022-08-07T22:46:04.619Z,7.88
2022-08-07T22:49:02.083Z,8.65
2022-08-07T22:52:36.686Z,7.60
2022-08-07T22:55:30.161Z,7.60
2022-08-07T22:58:17.475Z,7.60
2022-08-07T23:01:08.110Z,9.18
2022-08-07T23:03:57.929Z,10.25
2022-08-07T23:06:51.295Z,10.68
2022-08-07T23:10:00.681Z,9.10
2022-08-07T23:12:46.761Z,11.77
2022-08-07T23:16:06.452Z,9.52
2022-08-07T23:19:14.016Z,9.57
2022-08-07T23:21:58.148Z,9.07
2022-08-07T23:28:21.412Z,7.70
2022-08-07T23:31:11.606Z,6.28
2022-08-07T23:34:36.479Z,7.07
2022-08-07T23:40:07.547Z,5.50
2022-08-07T23:43:16.941Z,4.78
2022-08-07T23:46:10.668Z,5.28
2022-08-07T23:49:08.705Z,4.32
2022-08-07T23:53:01.866Z,3.45
2022-08-07T23:54:58.251Z,3.92
2022-08-07T23:58:06.660Z,2.95
